Time;durP1;ratioP1;P1;durP2;ratioP2;P2;SDS_P1;SDS_P2;PMS_P1;PMS_P2;Temp;Humidity;BMP_temperature;BMP_pressure;BME280_temperature;BME280_humidity;BME280_pressure;Samples;Min_cycle;Max_cycle;Signal;HPM_P1;HPM_P2
2020/12/10 00:02:20;;;;;;;28.53;15.60;;;-0.30;99.90;;;;;;5091305;28;20173;-70
2020/12/10 00:04:46;;;;;;;35.17;16.37;;;-0.30;99.90;;;;;;5093019;28;20173;-70
2020/12/10 00:07:11;;;;;;;27.70;17.10;;;-0.30;99.90;;;;;;5093316;28;20182;-70
2020/12/10 00:09:37;;;;;;;25.00;15.70;;;-0.30;99.90;;;;;;5092786;28;20689;-70
2020/12/10 00:12:06;;;;;;;27.30;16.17;;;-0.30;99.90;;;;;;5093383;28;20177;-70
2020/12/10 00:14:31;;;;;;;30.83;15.60;;;-0.30;99.90;;;;;;5092147;28;20173;-70
2020/12/10 00:16:57;;;;;;;28.20;15.73;;;-0.30;99.90;;;;;;5092421;28;20822;-70
2020/12/10 00:19:22;;;;;;;22.53;14.00;;;-0.30;99.90;;;;;;5092156;28;20201;-70
2020/12/10 00:21:48;;;;;;;27.53;16.10;;;-0.20;99.90;;;;;;5091329;28;20171;-70
2020/12/10 00:24:14;;;;;;;30.93;16.83;;;-0.30;99.90;;;;;;5092269;28;20252;-70
2020/12/10 00:26:39;;;;;;;29.80;17.57;;;-0.40;99.90;;;;;;5093080;28;20174;-70
2020/12/10 00:29:05;;;;;;;31.07;16.97;;;-0.40;99.90;;;;;;5092067;28;20208;-71
2020/12/10 00:31:31;;;;;;;28.63;16.80;;;-0.40;99.90;;;;;;5092097;28;20688;-70
2020/12/10 00:33:56;;;;;;;39.50;19.60;;;-0.40;99.90;;;;;;5092796;28;20171;-70
2020/12/10 00:36:22;;;;;;;28.93;18.47;;;-0.40;99.90;;;;;;5092458;28;20197;-71
2020/12/10 00:38:48;;;;;;;30.17;17.63;;;-0.40;99.90;;;;;;5091781;28;20256;-71
2020/12/10 00:41:14;;;;;;;31.00;18.80;;;-0.40;99.90;;;;;;5093461;28;20195;-71
2020/12/10 00:43:40;;;;;;;27.50;15.80;;;-0.40;99.90;;;;;;5091126;28;20195;-70
2020/12/10 00:46:06;;;;;;;25.43;15.83;;;-0.30;99.90;;;;;;5089670;28;20962;-70
2020/12/10 00:48:33;;;;;;;34.23;18.30;;;-0.30;99.90;;;;;;5092168;28;20242;-71
2020/12/10 00:51:02;;;;;;;27.37;17.97;;;-0.20;99.90;;;;;;5091961;28;20519;-70
2020/12/10 00:53:29;;;;;;;34.80;17.53;;;-0.30;99.90;;;;;;5091784;28;20431;-70
2020/12/10 00:55:57;;;;;;;28.20;17.47;;;-0.30;99.90;;;;;;5092741;28;20455;-70
2020/12/10 00:58:23;;;;;;;26.43;15.63;;;-0.30;99.90;;;;;;5092862;28;20520;-70
2020/12/10 01:00:50;;;;;;;27.53;16.80;;;-0.20;99.90;;;;;;5091885;28;20447;-70
2020/12/10 01:03:16;;;;;;;30.70;16.00;;;-0.20;99.90;;;;;;5093354;28;20427;-70
2020/12/10 01:05:45;;;;;;;31.10;17.23;;;-0.30;99.90;;;;;;5089356;28;20420;-71
2020/12/10 01:08:11;;;;;;;30.77;17.67;;;-0.20;99.90;;;;;;5092345;28;20419;-71
2020/12/10 01:10:37;;;;;;;30.10;17.07;;;-0.20;99.90;;;;;;5090825;28;20477;-70
2020/12/10 01:13:03;;;;;;;34.57;19.77;;;-0.10;99.90;;;;;;5092488;28;20438;-71
2020/12/10 01:15:28;;;;;;;32.67;18.70;;;-0.10;99.90;;;;;;5092104;28;20177;-71
2020/12/10 01:17:54;;;;;;;34.53;17.30;;;-0.20;99.90;;;;;;5091477;28;20654;-70
2020/12/10 01:20:20;;;;;;;33.10;17.47;;;-0.10;99.90;;;;;;5089305;28;20189;-70
2020/12/10 01:22:45;;;;;;;26.93;17.07;;;-0.10;99.90;;;;;;5092184;28;20197;-71
2020/12/10 01:25:11;;;;;;;32.77;16.70;;;-0.10;99.90;;;;;;5089988;28;20177;-71
2020/12/10 01:27:37;;;;;;;38.07;17.43;;;-0.10;99.90;;;;;;5086277;28;20177;-70
2020/12/10 01:30:04;;;;;;;28.63;18.90;;;0.00;99.90;;;;;;5087710;28;20533;-70
2020/12/10 01:32:30;;;;;;;33.63;16.27;;;0.00;99.90;;;;;;5089028;28;20225;-71
2020/12/10 01:34:56;;;;;;;27.10;15.73;;;0.00;99.90;;;;;;5091919;28;20885;-71
2020/12/10 01:37:21;;;;;;;33.97;15.90;;;-0.10;99.90;;;;;;5089936;28;20209;-71
2020/12/10 01:39:47;;;;;;;31.47;17.10;;;0.00;99.90;;;;;;5091114;28;20186;-71
2020/12/10 01:42:14;;;;;;;32.70;16.47;;;-0.10;99.90;;;;;;5092252;28;20539;-71
2020/12/10 01:44:40;;;;;;;30.70;16.73;;;-0.10;99.90;;;;;;5085551;28;20169;-70
2020/12/10 01:47:06;;;;;;;27.97;15.13;;;-0.10;99.90;;;;;;5092379;28;20429;-70
2020/12/10 01:49:35;;;;;;;28.90;16.90;;;-0.10;99.90;;;;;;5092133;28;20471;-70
2020/12/10 01:52:02;;;;;;;28.53;16.50;;;-0.10;99.90;;;;;;5091324;28;20426;-71
2020/12/10 01:54:28;;;;;;;31.80;16.50;;;-0.10;99.90;;;;;;5092319;28;20432;-71
2020/12/10 01:56:54;;;;;;;28.53;16.93;;;-0.10;99.90;;;;;;5091415;28;20459;-71
2020/12/10 01:59:21;;;;;;;31.97;17.10;;;-0.10;99.90;;;;;;5088681;28;20200;-71
2020/12/10 02:01:46;;;;;;;30.33;15.53;;;-0.10;99.90;;;;;;5091757;28;20458;-71
2020/12/10 02:04:29;;;;;;;32.67;17.33;;;-0.10;99.90;;;;;;5090114;28;20948;-71
2020/12/10 02:06:57;;;;;;;27.40;15.80;;;-0.20;99.90;;;;;;5092287;28;20181;-70
2020/12/10 02:09:23;;;;;;;28.33;16.33;;;-0.20;99.90;;;;;;5088562;28;20452;-71
2020/12/10 02:11:49;;;;;;;33.77;17.23;;;-0.20;99.90;;;;;;5091255;28;20430;-71
2020/12/10 02:14:15;;;;;;;24.67;15.50;;;-0.30;99.90;;;;;;5090882;28;20435;-71
2020/12/10 02:16:40;;;;;;;28.00;15.43;;;-0.10;99.90;;;;;;5090106;28;20466;-71
2020/12/10 02:19:06;;;;;;;27.57;16.00;;;-0.20;99.90;;;;;;5091206;28;20197;-71
2020/12/10 02:21:32;;;;;;;27.93;14.97;;;-0.10;99.90;;;;;;5089102;28;20170;-70
2020/12/10 02:23:57;;;;;;;27.67;16.90;;;0.00;99.90;;;;;;5090586;28;20173;-70
2020/12/10 02:26:24;;;;;;;24.90;14.80;;;0.00;99.90;;;;;;5089943;28;20573;-71
2020/12/10 02:28:50;;;;;;;24.87;15.17;;;0.00;99.90;;;;;;5090101;28;20176;-71
2020/12/10 02:31:23;;;;;;;27.00;16.40;;;-0.10;99.90;;;;;;5083725;28;20482;-70
2020/12/10 02:33:49;;;;;;;26.77;16.07;;;-0.10;99.90;;;;;;5091968;28;20458;-71
2020/12/10 02:36:14;;;;;;;21.60;14.33;;;0.00;99.90;;;;;;5090808;28;20974;-71
2020/12/10 02:38:40;;;;;;;27.23;14.10;;;0.00;99.90;;;;;;5090973;28;20451;-71
2020/12/10 02:41:06;;;;;;;28.13;15.83;;;0.00;99.90;;;;;;5094902;28;20716;-71
2020/12/10 02:43:31;;;;;;;27.23;15.00;;;0.00;99.90;;;;;;5095319;28;20175;-71
2020/12/10 02:45:57;;;;;;;30.40;16.03;;;-0.10;99.90;;;;;;5093956;28;20642;-71
2020/12/10 02:48:23;;;;;;;28.10;14.83;;;-0.10;99.90;;;;;;5093374;28;20666;-71
2020/12/10 02:50:48;;;;;;;35.53;16.43;;;-0.10;99.90;;;;;;5094731;28;20189;-71
2020/12/10 02:53:14;;;;;;;31.80;17.70;;;0.00;99.90;;;;;;5094000;28;20180;-71
2020/12/10 02:55:39;;;;;;;29.70;16.67;;;0.00;99.90;;;;;;5095598;28;20165;-71
2020/12/10 02:58:05;;;;;;;27.30;14.57;;;0.10;99.90;;;;;;5095646;28;20200;-71
2020/12/10 03:00:31;;;;;;;22.73;13.70;;;0.10;99.90;;;;;;5094463;28;20707;-71
2020/12/10 03:02:56;;;;;;;27.87;14.20;;;0.10;99.90;;;;;;5094133;28;20177;-71
2020/12/10 03:05:22;;;;;;;24.03;15.10;;;0.10;99.90;;;;;;5093628;28;20178;-71
2020/12/10 03:07:47;;;;;;;22.10;12.90;;;0.10;99.90;;;;;;5093891;28;20169;-71
2020/12/10 03:10:13;;;;;;;24.00;13.73;;;0.00;99.90;;;;;;5094481;28;20196;-71
2020/12/10 03:12:39;;;;;;;27.43;14.77;;;0.00;99.90;;;;;;5095064;28;20564;-71
2020/12/10 03:15:04;;;;;;;29.17;15.30;;;0.00;99.90;;;;;;5090429;28;20174;-71
2020/12/10 03:17:30;;;;;;;31.13;15.47;;;0.00;99.90;;;;;;5091594;28;20203;-71
2020/12/10 03:19:56;;;;;;;28.30;15.87;;;-0.10;99.90;;;;;;5093295;28;20197;-71
2020/12/10 03:22:22;;;;;;;31.63;14.63;;;-0.10;99.90;;;;;;5094017;28;20187;-71
2020/12/10 03:24:47;;;;;;;38.60;17.20;;;-0.10;99.90;;;;;;5094763;28;20984;-71
2020/12/10 03:27:13;;;;;;;25.93;15.60;;;-0.20;99.90;;;;;;5095141;28;20422;-70
2020/12/10 03:29:39;;;;;;;23.63;14.20;;;-0.10;99.90;;;;;;5092722;28;20243;-71
2020/12/10 03:32:05;;;;;;;28.30;15.97;;;-0.10;99.90;;;;;;5093359;28;20192;-71
2020/12/10 03:34:31;;;;;;;27.63;16.33;;;-0.20;99.90;;;;;;5079863;28;20186;-71
2020/12/10 03:36:59;;;;;;;26.00;14.77;;;-0.20;99.90;;;;;;5090111;28;20465;-71
2020/12/10 03:39:26;;;;;;;26.37;15.40;;;-0.10;99.90;;;;;;5090173;28;20543;-71
2020/12/10 03:41:53;;;;;;;25.67;14.97;;;-0.10;99.90;;;;;;5093553;28;20431;-70
2020/12/10 03:44:20;;;;;;;32.47;17.47;;;0.00;99.90;;;;;;5093465;28;20550;-71
2020/12/10 03:46:46;;;;;;;30.97;15.63;;;0.00;99.90;;;;;;5091810;28;20793;-71
2020/12/10 03:49:12;;;;;;;29.57;15.97;;;0.10;99.90;;;;;;5093521;28;20470;-71
2020/12/10 03:51:38;;;;;;;28.47;14.37;;;0.10;99.90;;;;;;5093694;28;20422;-71
2020/12/10 03:54:04;;;;;;;31.20;15.40;;;0.10;99.90;;;;;;5092984;28;20760;-71
2020/12/10 03:56:33;;;;;;;24.27;14.37;;;0.00;99.90;;;;;;5094103;28;22263;-71
2020/12/10 03:59:00;;;;;;;29.80;15.90;;;-0.10;99.90;;;;;;5092446;28;20444;-71
2020/12/10 04:01:26;;;;;;;33.03;16.60;;;-0.10;99.90;;;;;;5093497;28;20630;-71
2020/12/10 04:03:51;;;;;;;25.70;15.67;;;0.00;99.90;;;;;;5092953;28;20835;-71
2020/12/10 04:06:18;;;;;;;31.40;15.27;;;0.00;99.90;;;;;;5092824;28;20458;-71
2020/12/10 04:08:43;;;;;;;22.87;13.73;;;-0.20;99.90;;;;;;5093162;28;20252;-71
2020/12/10 04:11:09;;;;;;;27.17;14.50;;;-0.20;99.90;;;;;;5094142;28;20506;-71
2020/12/10 04:13:35;;;;;;;26.23;14.83;;;-0.20;99.90;;;;;;5091570;28;20169;-71
2020/12/10 04:16:02;;;;;;;31.63;16.50;;;-0.20;99.90;;;;;;5092187;28;20199;-71
2020/12/10 04:18:29;;;;;;;31.10;19.07;;;-0.20;99.90;;;;;;5092506;28;20197;-71
2020/12/10 04:20:55;;;;;;;42.23;21.70;;;-0.30;99.90;;;;;;5093754;28;20443;-70
2020/12/10 04:23:20;;;;;;;31.63;17.67;;;-0.10;99.90;;;;;;5091138;28;20420;-71
2020/12/10 04:25:55;;;;;;;34.77;16.70;;;0.00;99.90;;;;;;5085133;28;20491;-71
2020/12/10 04:28:22;;;;;;;28.70;15.80;;;0.10;99.90;;;;;;5091045;28;20719;-71
2020/12/10 04:30:48;;;;;;;26.70;14.70;;;0.20;99.90;;;;;;5092878;28;20612;-71
2020/12/10 04:33:14;;;;;;;25.47;14.43;;;0.20;99.90;;;;;;5092445;28;20492;-70
2020/12/10 04:35:40;;;;;;;25.43;14.97;;;0.30;99.90;;;;;;5093111;28;20523;-71
2020/12/10 04:38:07;;;;;;;21.53;13.57;;;0.30;99.90;;;;;;5087937;28;20447;-71
2020/12/10 04:40:34;;;;;;;27.93;14.80;;;0.20;99.90;;;;;;5089240;28;20447;-71
2020/12/10 04:43:02;;;;;;;25.63;14.40;;;0.20;99.90;;;;;;5092276;28;20435;-70
2020/12/10 04:45:28;;;;;;;24.70;14.63;;;0.10;99.90;;;;;;5093243;28;20427;-71
2020/12/10 04:47:54;;;;;;;29.60;16.20;;;0.10;99.90;;;;;;5082711;28;20442;-70
2020/12/10 04:50:23;;;;;;;29.07;14.90;;;0.10;99.90;;;;;;5089496;28;20938;-71
2020/12/10 04:52:50;;;;;;;38.10;16.53;;;0.00;99.90;;;;;;5080384;28;20796;-71
2020/12/10 04:55:16;;;;;;;30.23;17.77;;;-0.10;99.90;;;;;;5082363;28;20431;-71
2020/12/10 04:57:43;;;;;;;28.53;15.73;;;-0.10;99.90;;;;;;5085212;28;20458;-71
2020/12/10 05:00:12;;;;;;;27.60;16.67;;;-0.10;99.90;;;;;;5092090;28;20439;-70
2020/12/10 05:02:38;;;;;;;31.40;16.40;;;-0.10;99.90;;;;;;5090061;28;20511;-71
2020/12/10 05:05:24;;;;;;;30.33;15.27;;;-0.10;99.90;;;;;;5090814;28;20514;-71
2020/12/10 05:07:50;;;;;;;33.57;17.23;;;-0.10;99.90;;;;;;5093179;28;20165;-71
2020/12/10 05:10:16;;;;;;;28.30;16.10;;;-0.20;99.90;;;;;;5086079;28;20517;-71
2020/12/10 05:12:46;;;;;;;29.50;16.17;;;-0.20;99.90;;;;;;5089975;28;20816;-71
2020/12/10 05:15:12;;;;;;;29.60;15.10;;;-0.20;99.90;;;;;;5083030;28;20519;-70
2020/12/10 05:17:38;;;;;;;32.63;17.30;;;-0.20;99.90;;;;;;5080579;28;20452;-70
2020/12/10 05:20:06;;;;;;;29.03;16.13;;;-0.30;99.90;;;;;;5072958;28;20570;-71
2020/12/10 05:22:32;;;;;;;29.37;16.60;;;-0.20;99.90;;;;;;5083498;28;20205;-70
2020/12/10 05:25:04;;;;;;;31.27;16.93;;;-0.30;99.90;;;;;;5079822;28;20511;-71
2020/12/10 05:27:32;;;;;;;32.03;17.27;;;-0.20;99.90;;;;;;5085041;28;20967;-71
2020/12/10 05:29:57;;;;;;;30.57;16.07;;;-0.20;99.90;;;;;;5076973;28;20791;-71
2020/12/10 05:32:32;;;;;;;33.40;17.00;;;-0.30;99.90;;;;;;5082882;28;20449;-71
2020/12/10 05:34:57;;;;;;;34.63;17.07;;;-0.30;99.90;;;;;;5076930;28;20174;-71
2020/12/10 05:37:30;;;;;;;34.20;17.07;;;-0.20;99.90;;;;;;5085341;28;20520;-71
2020/12/10 05:40:00;;;;;;;31.83;17.43;;;-0.20;99.90;;;;;;5089152;28;20185;-71
2020/12/10 05:42:55;;;;;;;30.80;16.70;;;-0.20;99.90;;;;;;5087774;28;20428;-71
2020/12/10 05:45:22;;;;;;;32.27;16.70;;;-0.20;99.90;;;;;;5075319;28;20953;-70
2020/12/10 05:47:53;;;;;;;29.50;16.00;;;-0.20;99.90;;;;;;5082835;28;20526;-71
2020/12/10 05:50:27;;;;;;;36.90;17.97;;;-0.20;99.90;;;;;;5081492;28;20477;-70
2020/12/10 05:52:55;;;;;;;34.53;17.93;;;-0.10;99.90;;;;;;5085819;28;20448;-70
2020/12/10 05:55:20;;;;;;;34.17;17.23;;;-0.10;99.90;;;;;;5081218;28;20416;-71
2020/12/10 05:57:46;;;;;;;26.23;16.80;;;-0.20;99.90;;;;;;5079590;28;20501;-71
2020/12/10 06:00:12;;;;;;;30.97;16.77;;;-0.30;99.90;;;;;;5084419;28;20197;-70
2020/12/10 06:02:40;;;;;;;31.00;18.07;;;-0.20;99.90;;;;;;5081062;28;20174;-71
2020/12/10 06:05:06;;;;;;;28.17;16.60;;;-0.10;99.90;;;;;;5084336;28;20173;-71
2020/12/10 06:07:32;;;;;;;35.50;17.43;;;-0.20;99.90;;;;;;5081507;28;20419;-71
2020/12/10 06:09:59;;;;;;;33.47;16.53;;;-0.20;99.90;;;;;;5080979;28;20211;-71
2020/12/10 06:12:25;;;;;;;35.30;17.77;;;-0.30;99.90;;;;;;5079685;28;20650;-71
2020/12/10 06:14:51;;;;;;;36.40;17.27;;;-0.30;99.90;;;;;;5083774;28;20432;-71
2020/12/10 06:17:16;;;;;;;30.83;17.20;;;-0.30;99.90;;;;;;5079614;28;20452;-71
2020/12/10 06:19:42;;;;;;;34.10;17.53;;;-0.20;99.90;;;;;;5088374;28;20192;-71
2020/12/10 06:22:37;;;;;;;30.60;17.10;;;-0.30;99.90;;;;;;5083698;28;20170;-70
2020/12/10 06:25:04;;;;;;;29.60;16.10;;;-0.30;99.90;;;;;;5071003;28;20189;-70
2020/12/10 06:27:31;;;;;;;31.73;16.90;;;-0.30;99.90;;;;;;5090940;28;20510;-71
2020/12/10 06:30:09;;;;;;;27.30;15.90;;;-0.30;99.90;;;;;;5077657;28;20437;-71
2020/12/10 06:32:43;;;;;;;31.03;15.80;;;-0.30;99.90;;;;;;5086848;28;21216;-71
2020/12/10 06:35:24;;;;;;;43.73;21.87;;;-0.30;99.90;;;;;;5079732;28;20512;-71
2020/12/10 06:37:50;;;;;;;43.07;19.57;;;-0.30;99.90;;;;;;5083770;28;20512;-71
2020/12/10 06:40:31;;;;;;;33.50;18.47;;;-0.40;99.90;;;;;;5087684;28;20447;-71
2020/12/10 06:42:57;;;;;;;37.17;19.23;;;-0.40;99.90;;;;;;5071764;28;20194;-72
2020/12/10 06:45:34;;;;;;;30.87;16.97;;;-0.30;99.90;;;;;;5083892;28;20975;-72
2020/12/10 06:48:10;;;;;;;46.00;19.70;;;-0.40;99.90;;;;;;5086574;28;20488;-72
2020/12/10 06:50:38;;;;;;;36.70;17.20;;;-0.50;99.90;;;;;;5087664;28;20492;-72
2020/12/10 06:53:08;;;;;;;34.60;18.33;;;-0.40;99.90;;;;;;5084139;28;20511;-72
2020/12/10 06:55:54;;;;;;;36.10;18.73;;;-0.30;99.90;;;;;;5090001;28;20423;-72
2020/12/10 06:58:19;;;;;;;40.17;18.73;;;-0.30;99.90;;;;;;5091186;28;20842;-72
2020/12/10 07:00:51;;;;;;;31.47;19.17;;;-0.20;99.90;;;;;;5091103;28;20441;-72
2020/12/10 07:03:29;;;;;;;31.90;18.43;;;-0.20;99.90;;;;;;5090099;28;20639;-72
2020/12/10 07:05:55;;;;;;;34.03;17.53;;;-0.30;99.90;;;;;;5091761;28;20445;-72
2020/12/10 07:08:21;;;;;;;38.90;20.43;;;-0.20;99.90;;;;;;5091315;28;20423;-72
2020/12/10 07:10:49;;;;;;;32.47;16.73;;;-0.20;99.90;;;;;;5091181;28;20627;-72
2020/12/10 07:13:17;;;;;;;31.63;18.10;;;-0.20;99.90;;;;;;5085931;28;20423;-72
2020/12/10 07:15:49;;;;;;;33.37;18.10;;;-0.10;99.90;;;;;;5088801;28;20419;-72
2020/12/10 07:18:15;;;;;;;32.83;18.00;;;0.00;99.90;;;;;;5090031;28;20455;-71
2020/12/10 07:20:41;;;;;;;35.57;19.67;;;0.10;99.90;;;;;;5079461;28;20446;-72
2020/12/10 07:23:06;;;;;;;32.43;15.27;;;0.10;99.90;;;;;;5078195;28;20476;-72
2020/12/10 07:25:32;;;;;;;32.67;17.27;;;0.10;99.90;;;;;;5086221;28;20169;-72
2020/12/10 07:27:59;;;;;;;30.63;17.13;;;0.10;99.90;;;;;;5087451;28;20586;-72
2020/12/10 07:30:27;;;;;;;30.90;16.37;;;0.10;99.90;;;;;;5092082;28;20200;-71
2020/12/10 07:32:54;;;;;;;36.00;17.07;;;0.00;99.90;;;;;;5089909;28;20452;-72
2020/12/10 07:35:34;;;;;;;36.17;17.33;;;-0.10;99.90;;;;;;5086264;28;21030;-72
2020/12/10 07:38:11;;;;;;;38.93;16.00;;;0.00;99.90;;;;;;5093423;28;20465;-71
2020/12/10 07:40:37;;;;;;;33.27;16.30;;;-0.10;99.90;;;;;;5087239;28;20536;-71
2020/12/10 07:43:08;;;;;;;29.87;16.13;;;-0.10;99.90;;;;;;5093438;28;20499;-72
2020/12/10 07:45:34;;;;;;;34.93;15.83;;;-0.10;99.90;;;;;;5091164;28;20430;-72
2020/12/10 07:48:02;;;;;;;31.87;17.13;;;0.00;99.90;;;;;;5077982;28;20538;-72
2020/12/10 07:50:30;;;;;;;33.70;17.37;;;0.00;99.90;;;;;;5087768;28;20534;-72
2020/12/10 07:52:58;;;;;;;29.00;16.70;;;0.00;99.90;;;;;;5092507;28;20431;-72
2020/12/10 07:55:28;;;;;;;24.97;14.43;;;0.10;99.90;;;;;;5093320;28;20426;-72
2020/12/10 07:58:06;;;;;;;28.23;15.83;;;0.30;99.90;;;;;;5092010;28;20451;-72
2020/12/10 08:00:34;;;;;;;23.63;14.43;;;0.30;99.90;;;;;;5093321;28;20454;-72
2020/12/10 08:03:09;;;;;;;29.47;15.70;;;0.40;99.90;;;;;;5079954;28;20420;-72
2020/12/10 08:05:35;;;;;;;27.80;15.87;;;0.40;99.90;;;;;;5084596;28;20431;-71
2020/12/10 08:08:01;;;;;;;26.80;16.17;;;0.40;99.90;;;;;;5086635;28;20522;-72
2020/12/10 08:10:30;;;;;;;36.20;17.20;;;0.50;99.90;;;;;;5091300;28;21564;-72
2020/12/10 08:13:15;;;;;;;44.70;16.93;;;0.50;99.90;;;;;;5074358;28;20415;-72
2020/12/10 08:15:43;;;;;;;26.67;14.20;;;0.40;99.90;;;;;;5083541;28;20415;-72
2020/12/10 08:18:12;;;;;;;28.47;15.87;;;0.40;99.90;;;;;;5092919;28;20470;-72
2020/12/10 08:20:41;;;;;;;23.50;14.40;;;0.50;99.90;;;;;;5091438;28;20443;-72
2020/12/10 08:23:07;;;;;;;31.40;16.40;;;0.60;99.90;;;;;;5092455;28;20941;-72
2020/12/10 08:25:33;;;;;;;25.70;15.47;;;0.60;99.90;;;;;;5091824;28;20423;-72
2020/12/10 08:27:58;;;;;;;26.03;14.83;;;0.70;99.90;;;;;;5090664;28;20173;-72
2020/12/10 08:30:24;;;;;;;29.80;15.37;;;0.70;99.90;;;;;;5078460;28;20705;-72
2020/12/10 08:32:54;;;;;;;27.60;14.57;;;0.90;99.90;;;;;;5078224;28;20173;-72
2020/12/10 08:35:20;;;;;;;30.23;14.53;;;1.10;99.90;;;;;;5080831;28;20254;-72
2020/12/10 08:37:46;;;;;;;23.37;13.33;;;1.40;99.90;;;;;;5089926;28;20446;-72
2020/12/10 08:40:25;;;;;;;22.27;12.93;;;1.70;99.90;;;;;;5081866;28;20442;-72
2020/12/10 08:42:52;;;;;;;20.50;12.77;;;1.90;99.90;;;;;;5090418;28;20435;-72
2020/12/10 08:45:34;;;;;;;19.80;12.37;;;2.10;99.90;;;;;;5091522;28;20441;-72
2020/12/10 08:48:01;;;;;;;23.77;13.73;;;2.10;99.90;;;;;;5087273;28;20812;-72
2020/12/10 08:50:28;;;;;;;26.50;13.40;;;2.20;99.90;;;;;;5088972;28;20447;-72
2020/12/10 08:53:07;;;;;;;23.57;14.37;;;2.10;99.90;;;;;;5086137;28;20428;-72
2020/12/10 08:55:38;;;;;;;19.53;12.20;;;2.00;99.90;;;;;;5085621;28;20920;-72
2020/12/10 08:58:04;;;;;;;23.37;12.50;;;1.90;99.90;;;;;;5072085;28;20456;-71
2020/12/10 09:00:30;;;;;;;18.97;13.43;;;1.80;99.90;;;;;;5073621;28;20593;-71
2020/12/10 09:02:56;;;;;;;25.93;13.43;;;1.80;99.90;;;;;;5077167;28;21093;-71
2020/12/10 09:05:22;;;;;;;25.47;13.53;;;1.70;99.90;;;;;;5090509;28;20244;-72
2020/12/10 09:07:47;;;;;;;20.20;12.80;;;1.70;99.90;;;;;;5085425;28;20434;-72
2020/12/10 09:10:13;;;;;;;26.80;14.33;;;1.70;99.90;;;;;;5086434;28;20277;-72
2020/12/10 09:12:39;;;;;;;21.97;13.07;;;2.00;99.90;;;;;;5084148;28;20636;-72
2020/12/10 09:15:04;;;;;;;26.80;14.57;;;2.30;99.90;;;;;;5082872;28;20471;-72
2020/12/10 09:17:30;;;;;;;24.40;14.00;;;2.80;99.90;;;;;;5084098;28;20673;-72
2020/12/10 09:19:56;;;;;;;19.00;12.40;;;3.00;99.90;;;;;;5082940;28;20193;-72
2020/12/10 09:22:21;;;;;;;19.17;12.43;;;3.00;99.90;;;;;;5086774;28;20205;-72
2020/12/10 09:24:47;;;;;;;19.13;11.67;;;3.10;99.90;;;;;;5082980;28;20226;-72
2020/12/10 09:27:17;;;;;;;16.63;11.90;;;3.40;99.90;;;;;;5086119;28;20182;-72
2020/12/10 09:29:43;;;;;;;16.20;11.13;;;3.90;99.90;;;;;;5083667;28;20701;-72
2020/12/10 09:32:08;;;;;;;15.90;11.90;;;4.30;99.90;;;;;;5086174;28;20435;-72
2020/12/10 09:34:34;;;;;;;15.57;11.00;;;4.90;99.90;;;;;;5083715;28;20178;-72
2020/12/10 09:36:59;;;;;;;19.57;13.50;;;5.40;99.90;;;;;;5084846;28;20201;-72
2020/12/10 09:39:25;;;;;;;14.00;10.77;;;6.00;99.90;;;;;;5083298;28;20908;-72
2020/12/10 09:41:51;;;;;;;20.47;12.37;;;7.50;99.90;;;;;;5081048;28;20257;-72
2020/12/10 09:44:16;;;;;;;14.10;11.10;;;7.70;99.90;;;;;;5087586;28;20181;-72
2020/12/10 09:46:42;;;;;;;14.90;11.30;;;8.60;99.90;;;;;;5088016;28;20201;-73
2020/12/10 09:49:08;;;;;;;16.10;10.67;;;8.70;99.90;;;;;;5088126;28;20940;-73
2020/12/10 09:51:58;;;;;;;13.73;10.70;;;8.50;99.90;;;;;;5087462;28;20262;-73
2020/12/10 09:57:29;;;;;;;15.13;9.80;;;8.10;99.90;;;;;;5053078;28;20538;-73
2020/12/10 10:00:00;;;;;;;14.60;9.40;;;7.90;99.90;;;;;;5078469;28;20443;-73
2020/12/10 10:02:25;;;;;;;15.70;10.23;;;7.80;99.90;;;;;;5081764;28;20431;-73
2020/12/10 10:04:51;;;;;;;14.13;10.47;;;7.70;99.90;;;;;;5082128;28;20484;-72
2020/12/10 10:07:17;;;;;;;11.97;9.23;;;7.90;99.90;;;;;;5075680;28;20190;-72
2020/12/10 10:09:43;;;;;;;11.73;9.53;;;8.30;99.90;;;;;;5072184;28;20659;-72
2020/12/10 10:12:10;;;;;;;13.77;10.17;;;8.70;99.90;;;;;;5078372;28;20534;-73
2020/12/10 10:14:39;;;;;;;21.97;11.00;;;8.50;99.90;;;;;;5078464;28;20459;-73
2020/12/10 10:17:08;;;;;;;15.73;10.90;;;8.60;99.90;;;;;;5078439;28;20462;-73
2020/12/10 10:19:34;;;;;;;12.90;9.77;;;8.80;99.90;;;;;;5077270;28;20527;-73
2020/12/10 10:22:00;;;;;;;14.80;9.67;;;9.00;99.90;;;;;;5084329;28;20443;-73
2020/12/10 10:24:26;;;;;;;20.77;10.60;;;9.30;99.90;;;;;;5079212;28;20431;-73
2020/12/10 10:26:52;;;;;;;14.73;9.80;;;10.20;99.90;;;;;;5086886;28;20269;-73
2020/12/10 10:29:21;;;;;;;18.20;10.00;;;10.80;99.90;;;;;;5080798;28;20201;-72
2020/12/10 10:31:51;;;;;;;13.27;10.10;;;11.10;99.90;;;;;;5081158;28;20458;-73
2020/12/10 10:34:17;;;;;;;11.97;10.63;;;12.00;99.90;;;;;;5090943;28;20428;-73
2020/12/10 10:36:44;;;;;;;13.03;11.03;;;12.00;99.90;;;;;;5087171;28;20463;-73
2020/12/10 10:39:10;;;;;;;15.60;11.40;;;12.50;99.90;;;;;;5081844;28;20532;-72
2020/12/10 10:41:47;;;;;;;12.40;11.10;;;11.70;99.90;;;;;;5080883;28;20435;-72
2020/12/10 10:44:12;;;;;;;12.93;10.83;;;12.10;99.90;;;;;;5082046;28;20798;-72
2020/12/10 10:46:38;;;;;;;12.57;11.13;;;11.20;99.90;;;;;;5082927;28;20432;-72
2020/12/10 10:49:05;;;;;;;16.63;12.90;;;11.30;99.90;;;;;;5082688;28;20479;-73
2020/12/10 10:51:34;;;;;;;13.60;11.30;;;11.10;99.90;;;;;;5080299;28;20174;-72
2020/12/10 10:54:00;;;;;;;14.50;11.43;;;10.60;99.90;;;;;;5086794;28;20489;-72
2020/12/10 10:56:26;;;;;;;18.43;11.93;;;9.40;99.90;;;;;;5084006;28;21106;-72
2020/12/10 10:58:52;;;;;;;18.03;12.30;;;8.70;99.90;;;;;;5081834;28;20174;-72
2020/12/10 11:01:28;;;;;;;14.13;11.60;;;7.90;99.90;;;;;;5090891;28;20979;-72
2020/12/10 11:03:54;;;;;;;15.70;11.50;;;6.80;99.90;;;;;;5079207;28;20557;-72
2020/12/10 11:06:20;;;;;;;18.40;12.50;;;6.30;99.90;;;;;;5089512;28;20435;-72
2020/12/10 11:08:46;;;;;;;16.13;11.70;;;5.80;99.90;;;;;;5089464;28;20427;-72
2020/12/10 11:11:12;;;;;;;18.33;11.77;;;5.30;99.90;;;;;;5084182;28;20428;-72
2020/12/10 11:13:38;;;;;;;21.83;12.93;;;5.20;99.90;;;;;;5086548;28;20428;-72
2020/12/10 11:16:03;;;;;;;16.53;12.17;;;4.80;99.90;;;;;;5087603;28;20926;-72
2020/12/10 11:18:29;;;;;;;17.40;13.00;;;4.50;99.90;;;;;;5085815;28;21051;-72
2020/12/10 11:20:55;;;;;;;14.00;11.17;;;4.20;99.90;;;;;;5085326;28;20259;-72
2020/12/10 11:23:20;;;;;;;14.40;11.67;;;4.00;99.90;;;;;;5089009;28;20267;-72
2020/12/10 11:25:46;;;;;;;15.77;11.37;;;3.80;99.90;;;;;;5088162;28;20241;-72
2020/12/10 11:28:12;;;;;;;16.70;11.40;;;3.80;99.90;;;;;;5086754;28;20573;-72
2020/12/10 11:30:37;;;;;;;16.57;11.63;;;3.90;99.90;;;;;;5083499;28;20454;-72
2020/12/10 11:33:03;;;;;;;14.03;10.80;;;3.70;99.90;;;;;;5087795;28;20193;-72
2020/12/10 11:35:28;;;;;;;18.70;11.93;;;4.00;99.90;;;;;;5086729;28;20178;-72
2020/12/10 11:37:55;;;;;;;20.83;11.77;;;3.90;99.90;;;;;;5088070;28;21109;-72
2020/12/10 11:40:23;;;;;;;18.57;10.90;;;3.90;99.90;;;;;;5092143;28;20322;-72
2020/12/10 11:42:49;;;;;;;20.30;11.90;;;3.80;99.90;;;;;;5091539;28;20927;-72
2020/12/10 11:45:15;;;;;;;12.97;10.03;;;3.60;99.90;;;;;;5092845;28;20439;-72
2020/12/10 11:47:41;;;;;;;16.20;11.13;;;3.60;99.90;;;;;;5092843;28;20803;-72
2020/12/10 11:50:06;;;;;;;14.07;9.73;;;3.70;99.90;;;;;;5091055;28;20296;-72
2020/12/10 11:52:32;;;;;;;19.60;11.17;;;3.80;99.90;;;;;;5088270;28;20664;-71
2020/12/10 11:54:57;;;;;;;18.73;12.13;;;3.80;99.90;;;;;;5087376;28;20184;-71
2020/12/10 11:57:25;;;;;;;20.60;11.30;;;3.70;99.90;;;;;;5096053;28;20261;-71
2020/12/10 11:59:51;;;;;;;17.03;11.27;;;3.80;99.90;;;;;;5093192;28;20193;-71
2020/12/10 12:02:17;;;;;;;18.60;13.30;;;3.90;99.90;;;;;;5093511;28;20420;-71
2020/12/10 12:04:42;;;;;;;25.03;16.00;;;4.00;99.90;;;;;;5094176;28;20536;-71
2020/12/10 12:07:08;;;;;;;15.93;10.90;;;4.00;99.90;;;;;;5094566;28;20177;-71
2020/12/10 12:09:34;;;;;;;17.07;9.93;;;4.20;99.90;;;;;;5093790;28;20667;-71
2020/12/10 12:12:02;;;;;;;23.27;11.00;;;3.80;99.90;;;;;;5091706;28;20177;-71
2020/12/10 12:14:28;;;;;;;19.17;11.90;;;3.80;99.90;;;;;;5092379;28;20261;-71
2020/12/10 12:16:54;;;;;;;18.57;11.57;;;3.70;99.90;;;;;;5086509;28;20589;-71
2020/12/10 12:19:20;;;;;;;16.30;11.20;;;3.60;99.90;;;;;;5087497;28;20970;-71
2020/12/10 12:21:45;;;;;;;23.50;11.73;;;3.40;99.90;;;;;;5086594;28;20207;-71
2020/12/10 12:24:11;;;;;;;12.40;8.90;;;3.30;99.90;;;;;;5085918;28;20178;-71
2020/12/10 12:26:37;;;;;;;15.80;10.60;;;3.30;99.90;;;;;;5093400;28;20669;-71
2020/12/10 12:29:02;;;;;;;17.37;11.30;;;3.20;99.90;;;;;;5092517;28;20183;-71
2020/12/10 12:31:33;;;;;;;18.20;11.67;;;3.20;99.90;;;;;;5092348;28;20182;-71
2020/12/10 12:33:58;;;;;;;17.90;10.50;;;3.30;99.90;;;;;;5093314;28;20579;-71
2020/12/10 12:36:24;;;;;;;16.90;10.80;;;3.30;99.90;;;;;;5091562;28;20442;-70
2020/12/10 12:38:49;;;;;;;16.20;11.10;;;3.40;99.90;;;;;;5091076;28;20204;-71